Newburg, North Dakota
Current Conditions -  °F | °C
As of 5:58 PM on Monday 24 Nov 2014 (Local Time) from KMIB Reporting Station
Overcast Overcast  
Wind Chill: 12°   Ceiling: 4600
Heat Index: 22°   Visibility: 10mi
Dew Point: 15°   Wind: 9mph
Humidity: 76%   Direction: 260°W
Pressure: 29.95"   Gusts: NA
Location:  48.72°N, 100.91°W
Report Text: KMIB 242358Z AUTO 26008KT 10SM BKN046 OVC060 M06/M09 A2995 RMK AO2 SLP182 T10561092 11055 21091 51003
Loading
Personal Weather Stations






























Interactive Weather Map New forecast layout! Learn more

10-Day Weather Forecast

Advertisements
Track Severe Weather on mobile